Time;durP1;ratioP1;P1;durP2;ratioP2;P2;SDS_P1;SDS_P2;PMS_P1;PMS_P2;Temp;Humidity;BMP_temperature;BMP_pressure;BME280_temperature;BME280_humidity;BME280_pressure;Samples;Min_cycle;Max_cycle;Signal;HPM_P1;HPM_P2
2023/08/20 00:00:06;;;;;;;7.18;6.47;;;;;;;;;;522693;28;1115;-80
2023/08/20 00:00:22;;;;;;;7.47;6.63;;;;;;;;;;523636;28;1054;-80
2023/08/20 00:00:38;;;;;;;9.00;6.95;;;;;;;;;;524466;28;1149;-80
2023/08/20 00:00:53;;;;;;;10.25;7.13;;;;;;;;;;523359;28;1320;-80
2023/08/20 00:01:12;;;;;;;10.27;7.27;;;;;;;;;;524675;28;1046;-80
2023/08/20 00:01:28;;;;;;;10.13;7.40;;;;;;;;;;523778;28;1082;-80
2023/08/20 00:01:43;;;;;;;8.52;7.53;;;;;;;;;;525995;28;1168;-80
2023/08/20 00:02:01;;;;;;;8.23;7.33;;;;;;;;;;528154;27;1289;-80
2023/08/20 00:02:19;;;;;;;9.10;7.40;;;;;;;;;;526810;28;1412;-80
2023/08/20 00:02:37;;;;;;;9.15;7.80;;;;;;;;;;526730;28;1313;-80
2023/08/20 00:02:58;;;;;;;9.30;7.80;;;;;;;;;;522935;28;1426;-82
2023/08/20 00:03:14;;;;;;;8.32;7.45;;;;;;;;;;524697;28;1066;-80
2023/08/20 00:03:29;;;;;;;10.23;7.60;;;;;;;;;;524617;28;1232;-80
2023/08/20 00:03:46;;;;;;;10.87;7.63;;;;;;;;;;522594;28;1253;-80
2023/08/20 00:04:02;;;;;;;8.82;7.38;;;;;;;;;;524762;28;1390;-80
2023/08/20 00:04:17;;;;;;;9.35;7.43;;;;;;;;;;524454;28;1269;-80
2023/08/20 00:04:36;;;;;;;8.70;7.40;;;;;;;;;;522667;28;1168;-80
2023/08/20 00:04:55;;;;;;;8.15;7.18;;;;;;;;;;524829;28;1184;-80
2023/08/20 00:05:12;;;;;;;8.63;7.50;;;;;;;;;;523024;28;1070;-80
2023/08/20 00:05:27;;;;;;;10.10;7.57;;;;;;;;;;522502;28;1654;-80
2023/08/20 00:05:43;;;;;;;10.82;7.57;;;;;;;;;;522070;28;1307;-80
2023/08/20 00:05:59;;;;;;;9.77;7.65;;;;;;;;;;522829;28;1235;-80
2023/08/20 00:06:14;;;;;;;9.57;7.53;;;;;;;;;;522194;28;1200;-80
2023/08/20 00:06:30;;;;;;;9.40;7.32;;;;;;;;;;521839;28;1234;-79
2023/08/20 00:06:46;;;;;;;10.33;7.53;;;;;;;;;;522242;28;1095;-80
2023/08/20 00:07:02;;;;;;;11.52;7.82;;;;;;;;;;521843;28;1369;-79
2023/08/20 00:07:18;;;;;;;11.18;8.00;;;;;;;;;;521650;28;1031;-80
2023/08/20 00:07:33;;;;;;;9.07;8.10;;;;;;;;;;524412;28;1192;-80
2023/08/20 00:07:49;;;;;;;9.13;8.10;;;;;;;;;;522851;28;1444;-79
2023/08/20 00:08:04;;;;;;;9.77;8.10;;;;;;;;;;521316;28;1303;-80
2023/08/20 00:08:20;;;;;;;10.70;8.20;;;;;;;;;;523146;28;1234;-79
2023/08/20 00:08:36;;;;;;;10.33;8.37;;;;;;;;;;524750;28;1235;-80
2023/08/20 00:08:51;;;;;;;9.43;8.38;;;;;;;;;;524218;28;1155;-80
2023/08/20 00:09:08;;;;;;;10.07;8.43;;;;;;;;;;522350;28;1229;-79
2023/08/20 00:09:26;;;;;;;11.15;8.70;;;;;;;;;;522458;28;1317;-79
2023/08/20 00:09:41;;;;;;;10.57;8.48;;;;;;;;;;524740;28;1433;-79
2023/08/20 00:09:56;;;;;;;9.03;8.07;;;;;;;;;;526876;28;1333;-80
2023/08/20 00:10:12;;;;;;;11.10;7.70;;;;;;;;;;527017;28;1245;-79
2023/08/20 00:10:27;;;;;;;12.93;7.93;;;;;;;;;;527493;27;1053;-80
2023/08/20 00:10:42;;;;;;;11.10;8.23;;;;;;;;;;526573;28;1261;-79
2023/08/20 00:10:58;;;;;;;10.33;8.50;;;;;;;;;;526797;28;1918;-80
2023/08/20 00:11:13;;;;;;;10.93;8.23;;;;;;;;;;526160;28;1269;-81
2023/08/20 00:11:29;;;;;;;10.85;8.18;;;;;;;;;;526584;28;1294;-80
2023/08/20 00:11:44;;;;;;;10.90;8.50;;;;;;;;;;526967;27;1101;-80
2023/08/20 00:11:59;;;;;;;10.30;8.23;;;;;;;;;;528862;27;1167;-79
2023/08/20 00:12:15;;;;;;;11.02;8.23;;;;;;;;;;526854;28;1237;-80
2023/08/20 00:12:30;;;;;;;11.47;8.50;;;;;;;;;;525177;28;1340;-79
2023/08/20 00:12:46;;;;;;;10.07;8.25;;;;;;;;;;526627;28;1098;-80
2023/08/20 00:13:01;;;;;;;11.23;7.93;;;;;;;;;;523875;28;1306;-79
2023/08/20 00:13:16;;;;;;;11.03;8.10;;;;;;;;;;524423;28;1184;-79
2023/08/20 00:13:32;;;;;;;9.25;7.78;;;;;;;;;;524431;28;1228;-80
2023/08/20 00:13:47;;;;;;;9.87;7.87;;;;;;;;;;524240;28;1319;-79
2023/08/20 00:14:02;;;;;;;9.37;8.03;;;;;;;;;;523930;28;1053;-79
2023/08/20 00:14:18;;;;;;;9.73;8.00;;;;;;;;;;521033;28;1325;-80
2023/08/20 00:15:11;;;;;;;10.07;8.10;;;;;;;;;;520422;28;1382;-80
2023/08/20 00:15:27;;;;;;;10.88;8.00;;;;;;;;;;518985;28;1270;-79
2023/08/20 00:15:43;;;;;;;10.50;7.83;;;;;;;;;;513265;28;1261;-80
2023/08/20 00:15:59;;;;;;;8.32;7.38;;;;;;;;;;515938;28;1166;-80
2023/08/20 00:16:14;;;;;;;8.00;7.30;;;;;;;;;;514877;28;1303;-81
2023/08/20 00:16:30;;;;;;;8.15;7.40;;;;;;;;;;517548;28;1218;-80
2023/08/20 00:16:46;;;;;;;7.97;7.20;;;;;;;;;;516286;28;1472;-80
2023/08/20 00:17:01;;;;;;;8.38;7.43;;;;;;;;;;515075;28;1169;-80
2023/08/20 00:17:17;;;;;;;9.93;8.00;;;;;;;;;;514764;28;1124;-80
2023/08/20 00:17:36;;;;;;;11.23;8.45;;;;;;;;;;516452;28;1319;-80
2023/08/20 00:17:51;;;;;;;11.02;8.70;;;;;;;;;;514842;28;1418;-79
2023/08/20 00:18:07;;;;;;;11.03;8.50;;;;;;;;;;516234;28;1134;-79
2023/08/20 00:18:22;;;;;;;11.57;8.30;;;;;;;;;;515458;28;1251;-80
2023/08/20 00:18:39;;;;;;;11.53;8.37;;;;;;;;;;516563;28;1174;-80
2023/08/20 00:18:54;;;;;;;10.60;8.40;;;;;;;;;;518355;28;1467;-79
2023/08/20 00:19:13;;;;;;;9.47;8.47;;;;;;;;;;516987;28;1146;-80
2023/08/20 00:19:29;;;;;;;10.57;8.48;;;;;;;;;;513518;28;1320;-80
2023/08/20 00:19:44;;;;;;;9.70;8.10;;;;;;;;;;515224;28;1307;-80
2023/08/20 00:20:00;;;;;;;9.93;8.10;;;;;;;;;;518405;28;1351;-80
2023/08/20 00:20:16;;;;;;;9.98;8.18;;;;;;;;;;519180;28;1166;-80
2023/08/20 00:20:31;;;;;;;10.85;8.05;;;;;;;;;;520578;28;1178;-80
2023/08/20 00:20:47;;;;;;;10.47;7.77;;;;;;;;;;517598;28;1333;-80
2023/08/20 00:21:03;;;;;;;8.52;7.70;;;;;;;;;;514212;28;1318;-80
2023/08/20 00:21:19;;;;;;;9.02;8.10;;;;;;;;;;512145;28;1464;-80
2023/08/20 00:21:35;;;;;;;9.40;8.40;;;;;;;;;;512273;28;1335;-80
2023/08/20 00:21:51;;;;;;;9.33;8.07;;;;;;;;;;512892;28;1080;-80
2023/08/20 00:22:06;;;;;;;10.13;7.60;;;;;;;;;;513599;28;1128;-80
2023/08/20 00:22:23;;;;;;;10.47;8.03;;;;;;;;;;514044;28;2114;-80
2023/08/20 00:22:41;;;;;;;8.90;7.95;;;;;;;;;;513594;28;1491;-80
2023/08/20 00:22:57;;;;;;;8.48;7.60;;;;;;;;;;513815;28;1517;-80
2023/08/20 00:23:13;;;;;;;8.80;7.90;;;;;;;;;;516251;28;1210;-80
2023/08/20 00:23:28;;;;;;;8.70;7.80;;;;;;;;;;515539;28;1374;-80
2023/08/20 00:23:43;;;;;;;8.50;7.60;;;;;;;;;;518573;28;1221;-81
2023/08/20 00:23:59;;;;;;;9.20;8.20;;;;;;;;;;516180;28;1184;-80
2023/08/20 00:24:15;;;;;;;10.05;8.70;;;;;;;;;;516766;28;1064;-81
2023/08/20 00:24:30;;;;;;;9.80;8.35;;;;;;;;;;514289;28;1228;-81
2023/08/20 00:24:46;;;;;;;9.03;8.00;;;;;;;;;;514769;28;1220;-81
2023/08/20 00:25:03;;;;;;;10.57;8.10;;;;;;;;;;514748;28;1288;-81
2023/08/20 00:25:19;;;;;;;11.45;8.23;;;;;;;;;;512785;28;1140;-80
2023/08/20 00:25:35;;;;;;;9.90;8.05;;;;;;;;;;512778;28;1372;-81
2023/08/20 00:25:50;;;;;;;8.93;8.00;;;;;;;;;;515294;28;1233;-81
2023/08/20 00:26:06;;;;;;;8.80;7.90;;;;;;;;;;514523;28;1480;-80
2023/08/20 00:26:21;;;;;;;9.97;8.43;;;;;;;;;;514918;28;1189;-80
2023/08/20 00:26:37;;;;;;;10.70;8.57;;;;;;;;;;511874;28;1413;-80
2023/08/20 00:26:52;;;;;;;10.83;8.30;;;;;;;;;;512570;28;1212;-81
2023/08/20 00:27:07;;;;;;;10.52;8.38;;;;;;;;;;514630;28;1219;-81
2023/08/20 00:27:23;;;;;;;10.40;8.00;;;;;;;;;;510405;28;1245;-81
2023/08/20 00:27:39;;;;;;;10.67;8.07;;;;;;;;;;509649;28;1303;-79
2023/08/20 00:27:54;;;;;;;10.38;8.23;;;;;;;;;;510744;28;1247;-81
2023/08/20 00:28:10;;;;;;;10.63;8.47;;;;;;;;;;513515;28;1188;-80
2023/08/20 00:28:25;;;;;;;11.10;8.53;;;;;;;;;;513636;28;1189;-81
2023/08/20 00:28:40;;;;;;;10.25;8.20;;;;;;;;;;511150;28;1337;-81
2023/08/20 00:28:55;;;;;;;9.80;8.47;;;;;;;;;;512495;28;1243;-80
2023/08/20 00:29:11;;;;;;;10.57;8.33;;;;;;;;;;514214;28;1600;-81
2023/08/20 00:29:26;;;;;;;8.87;7.93;;;;;;;;;;509563;28;1927;-79
2023/08/20 00:29:41;;;;;;;8.80;8.00;;;;;;;;;;512123;28;1229;-80
2023/08/20 00:29:56;;;;;;;9.00;8.10;;;;;;;;;;511543;28;1640;-80
2023/08/20 00:30:12;;;;;;;9.10;8.00;;;;;;;;;;513878;28;1376;-80
2023/08/20 00:30:27;;;;;;;11.47;8.23;;;;;;;;;;513331;28;1229;-81
2023/08/20 00:30:42;;;;;;;12.15;8.32;;;;;;;;;;514456;28;1294;-80
2023/08/20 00:30:58;;;;;;;10.13;8.50;;;;;;;;;;514488;28;1930;-81
2023/08/20 00:31:13;;;;;;;9.77;8.60;;;;;;;;;;516652;28;1210;-81
2023/08/20 00:31:28;;;;;;;9.63;8.60;;;;;;;;;;516434;28;1049;-80
2023/08/20 00:31:43;;;;;;;10.07;8.52;;;;;;;;;;516484;28;1195;-80
2023/08/20 00:31:59;;;;;;;10.50;8.13;;;;;;;;;;516682;28;1187;-81
2023/08/20 00:32:14;;;;;;;11.20;8.20;;;;;;;;;;516572;28;1181;-81
2023/08/20 00:32:30;;;;;;;10.30;8.20;;;;;;;;;;513001;28;1202;-81
2023/08/20 00:32:45;;;;;;;12.45;8.15;;;;;;;;;;514413;28;1295;-81
2023/08/20 00:33:01;;;;;;;14.90;8.30;;;;;;;;;;512109;28;1201;-81
2023/08/20 00:33:17;;;;;;;11.13;8.63;;;;;;;;;;516448;28;1162;-81
2023/08/20 00:33:32;;;;;;;11.23;9.10;;;;;;;;;;514101;28;1331;-81
2023/08/20 00:33:47;;;;;;;12.18;8.68;;;;;;;;;;512353;28;1271;-80
2023/08/20 00:34:03;;;;;;;12.63;8.17;;;;;;;;;;512694;28;1205;-80
2023/08/20 00:34:18;;;;;;;12.50;8.17;;;;;;;;;;512195;28;1294;-81
2023/08/20 00:34:33;;;;;;;10.30;7.93;;;;;;;;;;515801;28;1226;-81
2023/08/20 00:34:49;;;;;;;9.68;8.00;;;;;;;;;;518407;28;1126;-81
2023/08/20 00:35:04;;;;;;;8.90;8.00;;;;;;;;;;518582;28;1249;-81
2023/08/20 00:35:20;;;;;;;8.50;7.70;;;;;;;;;;516380;28;1575;-81
2023/08/20 00:35:35;;;;;;;8.10;7.37;;;;;;;;;;514053;28;1529;-80
2023/08/20 00:35:50;;;;;;;7.80;7.10;;;;;;;;;;514304;28;1359;-80
2023/08/20 00:36:06;;;;;;;8.35;7.30;;;;;;;;;;514846;28;1080;-80
2023/08/20 00:36:21;;;;;;;9.07;7.70;;;;;;;;;;513041;28;1189;-81
2023/08/20 00:36:36;;;;;;;8.67;7.67;;;;;;;;;;514613;28;1213;-82
2023/08/20 00:36:51;;;;;;;8.18;7.30;;;;;;;;;;514422;28;1121;-81
2023/08/20 00:37:07;;;;;;;8.90;7.10;;;;;;;;;;512275;28;1215;-81
2023/08/20 00:37:22;;;;;;;9.37;7.20;;;;;;;;;;512729;28;1186;-80
2023/08/20 00:37:37;;;;;;;8.37;7.33;;;;;;;;;;514625;28;1143;-81
2023/08/20 00:37:53;;;;;;;8.45;7.57;;;;;;;;;;514603;28;1240;-80
2023/08/20 00:38:08;;;;;;;8.83;7.90;;;;;;;;;;513957;28;1201;-81
2023/08/20 00:38:23;;;;;;;9.37;7.73;;;;;;;;;;514436;28;1365;-81
2023/08/20 00:38:39;;;;;;;8.80;7.40;;;;;;;;;;513355;28;1232;-79
2023/08/20 00:38:54;;;;;;;8.93;7.50;;;;;;;;;;510673;28;1178;-81
2023/08/20 00:39:09;;;;;;;10.23;7.97;;;;;;;;;;512352;28;1282;-81
2023/08/20 00:39:24;;;;;;;11.10;8.00;;;;;;;;;;512909;28;1356;-80
2023/08/20 00:39:40;;;;;;;9.95;7.72;;;;;;;;;;516538;28;1344;-80
2023/08/20 00:39:55;;;;;;;8.37;7.60;;;;;;;;;;515411;28;1322;-81
2023/08/20 00:40:11;;;;;;;8.43;7.63;;;;;;;;;;513409;28;1322;-81
2023/08/20 00:40:26;;;;;;;8.68;7.78;;;;;;;;;;513405;28;1259;-82
2023/08/20 00:40:41;;;;;;;9.20;7.70;;;;;;;;;;512514;28;1214;-80
2023/08/20 00:40:56;;;;;;;9.47;7.63;;;;;;;;;;510376;28;1331;-81
2023/08/20 00:41:12;;;;;;;8.77;7.67;;;;;;;;;;512319;28;1093;-81
2023/08/20 00:41:27;;;;;;;9.87;7.70;;;;;;;;;;512803;28;1321;-80
2023/08/20 00:41:42;;;;;;;10.27;7.53;;;;;;;;;;513579;28;1270;-81
2023/08/20 00:41:57;;;;;;;10.03;7.50;;;;;;;;;;512546;28;1611;-80
2023/08/20 00:42:16;;;;;;;11.68;7.88;;;;;;;;;;516586;28;1224;-80
2023/08/20 00:42:31;;;;;;;12.45;7.95;;;;;;;;;;516212;28;1490;-80
2023/08/20 00:42:46;;;;;;;10.03;7.50;;;;;;;;;;514842;28;1340;-80
2023/08/20 00:43:02;;;;;;;9.40;7.30;;;;;;;;;;516133;28;1161;-80
2023/08/20 00:43:17;;;;;;;10.50;7.72;;;;;;;;;;516787;28;1205;-81
2023/08/20 00:43:32;;;;;;;10.87;8.00;;;;;;;;;;516690;28;1321;-81
2023/08/20 00:43:47;;;;;;;10.00;7.90;;;;;;;;;;513495;28;1297;-80
2023/08/20 00:44:03;;;;;;;10.02;7.97;;;;;;;;;;512557;28;1182;-80
2023/08/20 00:44:18;;;;;;;11.70;8.20;;;;;;;;;;513283;28;1331;-81
2023/08/20 00:44:34;;;;;;;10.23;7.87;;;;;;;;;;516209;28;1075;-80
2023/08/20 00:44:49;;;;;;;9.07;7.65;;;;;;;;;;514160;28;1233;-80
2023/08/20 00:45:05;;;;;;;10.53;7.60;;;;;;;;;;515530;28;1431;-81
2023/08/20 00:45:22;;;;;;;11.05;7.80;;;;;;;;;;516205;28;1075;-80
2023/08/20 00:45:37;;;;;;;9.90;7.72;;;;;;;;;;516722;28;1513;-80
2023/08/20 00:45:52;;;;;;;7.72;6.93;;;;;;;;;;516165;28;1221;-81
2023/08/20 00:46:08;;;;;;;7.00;6.30;;;;;;;;;;516398;28;1286;-80
2023/08/20 00:46:24;;;;;;;7.63;6.82;;;;;;;;;;516325;28;1190;-81
2023/08/20 00:46:39;;;;;;;8.93;6.97;;;;;;;;;;517041;28;1325;-80
2023/08/20 00:46:55;;;;;;;8.37;6.57;;;;;;;;;;516283;28;1185;-81
2023/08/20 00:47:11;;;;;;;7.28;6.57;;;;;;;;;;516610;28;1232;-80
2023/08/20 00:47:27;;;;;;;7.70;6.90;;;;;;;;;;522544;28;1508;-81
2023/08/20 00:47:43;;;;;;;8.35;6.78;;;;;;;;;;524641;28;1301;-80
2023/08/20 00:47:58;;;;;;;8.77;6.80;;;;;;;;;;522490;28;1338;-80
2023/08/20 00:48:15;;;;;;;7.60;6.80;;;;;;;;;;522325;28;1258;-80
2023/08/20 00:48:30;;;;;;;7.45;6.75;;;;;;;;;;522971;28;1129;-81
2023/08/20 00:48:45;;;;;;;7.57;6.87;;;;;;;;;;522939;28;1325;-80
2023/08/20 00:49:01;;;;;;;7.27;6.67;;;;;;;;;;522994;28;1244;-80
2023/08/20 00:49:17;;;;;;;7.45;6.75;;;;;;;;;;522933;28;1267;-80
2023/08/20 00:49:32;;;;;;;7.18;6.47;;;;;;;;;;524768;28;1290;-80
2023/08/20 00:49:48;;;;;;;6.90;6.30;;;;;;;;;;522787;28;1239;-80
2023/08/20 00:50:08;;;;;;;7.07;6.38;;;;;;;;;;519654;28;1314;-80
2023/08/20 00:50:23;;;;;;;7.97;6.40;;;;;;;;;;522299;28;1363;-80
2023/08/20 00:50:40;;;;;;;8.00;6.45;;;;;;;;;;522045;28;1239;-81
2023/08/20 00:50:55;;;;;;;7.40;6.63;;;;;;;;;;520392;28;1915;-80
2023/08/20 00:51:11;;;;;;;7.50;6.80;;;;;;;;;;524080;28;1105;-80
2023/08/20 00:51:26;;;;;;;7.70;6.90;;;;;;;;;;524800;28;1078;-81
2023/08/20 00:51:42;;;;;;;7.40;6.63;;;;;;;;;;525104;28;1404;-78
2023/08/20 00:51:58;;;;;;;8.60;6.63;;;;;;;;;;524189;28;1222;-80
2023/08/20 00:52:16;;;;;;;9.68;6.95;;;;;;;;;;522863;28;1479;-80
2023/08/20 00:52:32;;;;;;;8.10;6.50;;;;;;;;;;524545;28;1276;-80
2023/08/20 00:52:48;;;;;;;8.27;6.88;;;;;;;;;;522836;28;1273;-80
2023/08/20 00:53:03;;;;;;;9.15;7.53;;;;;;;;;;522955;28;1090;-80
2023/08/20 00:53:19;;;;;;;9.80;7.70;;;;;;;;;;522590;28;1165;-80
2023/08/20 00:53:34;;;;;;;8.23;7.37;;;;;;;;;;522490;28;1267;-80
2023/08/20 00:53:49;;;;;;;8.37;6.93;;;;;;;;;;522536;28;1259;-80
2023/08/20 00:54:05;;;;;;;8.40;6.60;;;;;;;;;;523600;28;1633;-80
2023/08/20 00:54:22;;;;;;;7.27;6.57;;;;;;;;;;525431;28;1109;-80
2023/08/20 00:54:39;;;;;;;7.30;6.63;;;;;;;;;;526687;28;1241;-80
2023/08/20 00:54:55;;;;;;;7.20;6.43;;;;;;;;;;523116;28;1421;-79
2023/08/20 00:55:12;;;;;;;8.70;6.50;;;;;;;;;;521571;28;1191;-80
2023/08/20 00:55:28;;;;;;;7.88;6.70;;;;;;;;;;522853;28;1432;-80
2023/08/20 00:55:44;;;;;;;8.20;7.10;;;;;;;;;;524064;28;1187;-81
2023/08/20 00:55:59;;;;;;;9.85;7.30;;;;;;;;;;525179;28;1255;-80
2023/08/20 00:56:15;;;;;;;9.07;7.67;;;;;;;;;;523212;28;1309;-80
2023/08/20 00:56:31;;;;;;;8.70;7.70;;;;;;;;;;522787;28;1460;-81
2023/08/20 00:56:49;;;;;;;9.93;7.87;;;;;;;;;;523156;28;1184;-81
2023/08/20 00:57:04;;;;;;;9.05;7.90;;;;;;;;;;522521;28;1299;-81
2023/08/20 00:57:20;;;;;;;9.00;7.37;;;;;;;;;;523992;28;1121;-82
2023/08/20 00:57:37;;;;;;;9.15;7.22;;;;;;;;;;525873;28;1176;-81
2023/08/20 00:57:52;;;;;;;8.05;7.13;;;;;;;;;;527313;28;1421;-82
2023/08/20 00:58:08;;;;;;;8.43;7.45;;;;;;;;;;526912;28;1210;-81
2023/08/20 00:58:23;;;;;;;9.07;7.80;;;;;;;;;;527493;28;1188;-82
2023/08/20 00:58:38;;;;;;;8.70;7.57;;;;;;;;;;527751;27;1174;-81
2023/08/20 00:58:54;;;;;;;8.83;7.80;;;;;;;;;;527140;28;1158;-81
2023/08/20 00:59:10;;;;;;;9.27;7.63;;;;;;;;;;525418;28;1184;-81
2023/08/20 00:59:27;;;;;;;8.47;7.10;;;;;;;;;;524776;28;1397;-81
2023/08/20 00:59:44;;;;;;;7.88;7.07;;;;;;;;;;525204;28;1377;-78
2023/08/20 00:59:59;;;;;;;8.52;7.63;;;;;;;;;;526960;28;1326;-80
2023/08/20 01:00:17;;;;;;;8.60;7.80;;;;;;;;;;526912;28;1168;-81
2023/08/20 01:00:32;;;;;;;8.65;7.75;;;;;;;;;;524867;28;1256;-81
2023/08/20 01:00:47;;;;;;;8.50;7.60;;;;;;;;;;524268;28;1232;-80
2023/08/20 01:01:03;;;;;;;8.60;7.72;;;;;;;;;;522967;28;1242;-81
2023/08/20 01:01:18;;;;;;;8.63;7.70;;;;;;;;;;520867;28;1310;-80
2023/08/20 01:01:33;;;;;;;9.20;7.80;;;;;;;;;;520929;28;1048;-82
2023/08/20 01:01:49;;;;;;;8.80;7.90;;;;;;;;;;519019;28;1178;-81
2023/08/20 01:02:05;;;;;;;10.05;7.82;;;;;;;;;;519659;28;1243;-82
2023/08/20 01:02:20;;;;;;;11.52;8.10;;;;;;;;;;519575;28;1444;-81
2023/08/20 01:02:37;;;;;;;10.87;8.07;;;;;;;;;;518480;28;1229;-81
2023/08/20 01:02:52;;;;;;;9.27;7.47;;;;;;;;;;519220;28;1088;-81
2023/08/20 01:03:07;;;;;;;9.03;7.60;;;;;;;;;;520993;28;1361;-80
2023/08/20 01:03:23;;;;;;;10.00;7.77;;;;;;;;;;522463;28;1217;-81
2023/08/20 01:03:38;;;;;;;9.70;7.57;;;;;;;;;;521063;28;1385;-81
2023/08/20 01:03:53;;;;;;;9.40;7.67;;;;;;;;;;523500;28;1313;-81
2023/08/20 01:04:09;;;;;;;8.63;7.72;;;;;;;;;;523195;28;1330;-81
2023/08/20 01:04:24;;;;;;;8.40;7.53;;;;;;;;;;523420;28;1279;-80
2023/08/20 01:04:39;;;;;;;9.70;7.80;;;;;;;;;;523128;28;1222;-81
2023/08/20 01:04:55;;;;;;;10.77;7.97;;;;;;;;;;520770;28;1321;-81
2023/08/20 01:05:11;;;;;;;12.60;7.93;;;;;;;;;;520843;28;1331;-79
2023/08/20 01:05:33;;;;;;;12.80;8.20;;;;;;;;;;520856;28;1264;-81
2023/08/20 01:06:04;;;;;;;11.27;8.30;;;;;;;;;;519386;28;1619;-81
2023/08/20 01:06:31;;;;;;;10.57;7.68;;;;;;;;;;520360;28;1266;-81
2023/08/20 01:06:51;;;;;;;11.50;7.88;;;;;;;;;;519631;28;1373;-80
2023/08/20 01:07:38;;;;;;;9.70;7.95;;;;;;;;;;522178;28;1189;-81
2023/08/20 01:08:25;;;;;;;9.45;7.90;;;;;;;;;;525499;28;1156;-80
2023/08/20 01:08:40;;;;;;;9.95;8.00;;;;;;;;;;527758;27;1349;-80
2023/08/20 01:09:06;;;;;;;9.07;7.73;;;;;;;;;;527126;28;1286;-81
2023/08/20 01:09:27;;;;;;;9.30;8.05;;;;;;;;;;525212;28;1432;-81
2023/08/20 01:10:07;;;;;;;12.52;8.10;;;;;;;;;;522897;28;1405;-80
2023/08/20 01:10:55;;;;;;;9.75;8.18;;;;;;;;;;520604;28;1529;-80
2023/08/20 01:11:17;;;;;;;8.75;7.85;;;;;;;;;;523842;28;1114;-80
2023/08/20 01:11:45;;;;;;;9.05;8.15;;;;;;;;;;527576;28;1093;-81
2023/08/20 01:12:02;;;;;;;9.93;8.40;;;;;;;;;;526837;28;1423;-81
2023/08/20 01:12:19;;;;;;;11.60;8.65;;;;;;;;;;527260;27;1193;-80
2023/08/20 01:12:36;;;;;;;11.32;8.20;;;;;;;;;;527567;27;1200;-80
2023/08/20 01:12:51;;;;;;;9.25;8.02;;;;;;;;;;529207;27;1130;-81
2023/08/20 01:13:07;;;;;;;9.30;8.15;;;;;;;;;;526489;28;1166;-81
2023/08/20 01:13:23;;;;;;;9.50;8.18;;;;;;;;;;527040;28;1340;-80
2023/08/20 01:13:38;;;;;;;9.50;8.13;;;;;;;;;;527278;28;1086;-81
2023/08/20 01:13:58;;;;;;;10.00;8.20;;;;;;;;;;525993;28;1243;-81
2023/08/20 01:14:15;;;;;;;10.13;8.20;;;;;;;;;;525110;28;1068;-81
2023/08/20 01:14:30;;;;;;;9.63;8.10;;;;;;;;;;527078;28;1199;-81
2023/08/20 01:14:46;;;;;;;9.83;8.17;;;;;;;;;;524770;28;1214;-81
2023/08/20 01:15:01;;;;;;;10.63;8.13;;;;;;;;;;522586;28;1290;-81
2023/08/20 01:15:16;;;;;;;10.15;8.35;;;;;;;;;;522565;28;1288;-80
2023/08/20 01:15:32;;;;;;;9.40;8.40;;;;;;;;;;520819;28;1323;-80
2023/08/20 01:15:47;;;;;;;9.40;8.20;;;;;;;;;;522735;28;1436;-80
2023/08/20 01:16:02;;;;;;;10.10;8.30;;;;;;;;;;522766;28;1176;-80
2023/08/20 01:16:17;;;;;;;10.93;8.63;;;;;;;;;;523812;28;1263;-80
2023/08/20 01:16:33;;;;;;;11.03;8.70;;;;;;;;;;522709;28;1294;-82
2023/08/20 01:16:49;;;;;;;10.17;8.47;;;;;;;;;;522836;28;1357;-81
2023/08/20 01:17:04;;;;;;;9.40;8.40;;;;;;;;;;523366;28;1115;-81
2023/08/20 01:17:20;;;;;;;9.65;8.35;;;;;;;;;;522513;28;1380;-81
2023/08/20 01:17:35;;;;;;;10.77;8.43;;;;;;;;;;522534;28;1386;-81
2023/08/20 01:17:51;;;;;;;10.48;8.38;;;;;;;;;;522598;28;1149;-80
2023/08/20 01:18:06;;;;;;;11.03;8.23;;;;;;;;;;523191;28;1181;-80
2023/08/20 01:18:24;;;;;;;11.00;8.20;;;;;;;;;;525296;28;1133;-81
2023/08/20 01:18:39;;;;;;;9.88;8.25;;;;;;;;;;526712;28;1164;-80
2023/08/20 01:18:54;;;;;;;8.90;8.00;;;;;;;;;;526046;28;1247;-81
2023/08/20 01:19:16;;;;;;;9.00;7.90;;;;;;;;;;525012;28;1372;-81
2023/08/20 01:19:31;;;;;;;9.40;8.30;;;;;;;;;;525964;28;1265;-82
2023/08/20 01:19:47;;;;;;;8.98;8.10;;;;;;;;;;524888;28;1445;-81
2023/08/20 01:20:04;;;;;;;9.23;8.32;;;;;;;;;;524634;28;1326;-82
2023/08/20 01:20:23;;;;;;;10.15;8.50;;;;;;;;;;523885;28;1232;-81
2023/08/20 01:20:44;;;;;;;9.15;8.15;;;;;;;;;;522484;28;1371;-81
2023/08/20 01:21:04;;;;;;;9.10;8.20;;;;;;;;;;520980;28;1253;-80
2023/08/20 01:21:39;;;;;;;9.15;8.13;;;;;;;;;;519278;28;1435;-81
2023/08/20 01:22:12;;;;;;;9.35;7.43;;;;;;;;;;524304;28;1440;-81
2023/08/20 01:22:56;;;;;;;7.75;6.95;;;;;;;;;;522841;28;1385;-81
2023/08/20 01:23:48;;;;;;;8.68;7.60;;;;;;;;;;523070;28;1254;-81
2023/08/20 01:24:31;;;;;;;9.32;7.82;;;;;;;;;;524508;28;1352;-81
2023/08/20 01:24:54;;;;;;;9.38;8.15;;;;;;;;;;524646;28;1354;-81
2023/08/20 01:25:24;;;;;;;10.07;7.95;;;;;;;;;;526632;28;1144;-81
2023/08/20 01:26:13;;;;;;;9.32;8.13;;;;;;;;;;524410;28;1301;-81
2023/08/20 01:27:04;;;;;;;8.85;7.75;;;;;;;;;;525978;28;1220;-79
2023/08/20 01:27:54;;;;;;;9.63;8.30;;;;;;;;;;528343;27;1172;-81
2023/08/20 01:28:28;;;;;;;10.38;7.97;;;;;;;;;;528733;27;1456;-81
2023/08/20 01:28:45;;;;;;;9.93;8.35;;;;;;;;;;529044;27;1159;-82
2023/08/20 01:29:00;;;;;;;10.80;8.45;;;;;;;;;;525634;28;1364;-81
2023/08/20 01:29:16;;;;;;;11.50;8.27;;;;;;;;;;526376;28;1066;-82
2023/08/20 01:29:32;;;;;;;10.45;8.05;;;;;;;;;;524869;28;1217;-81
2023/08/20 01:29:48;;;;;;;9.98;8.48;;;;;;;;;;523720;28;1318;-81
2023/08/20 01:30:04;;;;;;;10.27;8.50;;;;;;;;;;523979;28;1537;-80
2023/08/20 01:30:21;;;;;;;10.32;8.35;;;;;;;;;;524851;28;1251;-80
2023/08/20 01:30:37;;;;;;;12.68;8.27;;;;;;;;;;524661;28;1278;-80
2023/08/20 01:30:53;;;;;;;12.07;8.25;;;;;;;;;;524910;28;1906;-80
2023/08/20 01:31:09;;;;;;;10.15;8.18;;;;;;;;;;524935;28;1117;-81
2023/08/20 01:31:26;;;;;;;11.85;8.20;;;;;;;;;;525864;28;1358;-80
2023/08/20 01:31:44;;;;;;;11.30;8.15;;;;;;;;;;524362;28;1388;-79
2023/08/20 01:32:00;;;;;;;9.93;8.00;;;;;;;;;;524146;28;1319;-81
2023/08/20 01:32:16;;;;;;;11.88;8.63;;;;;;;;;;525124;28;1208;-81
2023/08/20 01:32:33;;;;;;;10.25;8.07;;;;;;;;;;522515;28;1385;-80
2023/08/20 01:32:51;;;;;;;9.02;8.00;;;;;;;;;;522787;28;1341;-81
2023/08/20 01:33:07;;;;;;;9.20;8.18;;;;;;;;;;520699;28;1298;-82
2023/08/20 01:33:24;;;;;;;8.88;7.95;;;;;;;;;;524343;28;1273;-81
2023/08/20 01:33:40;;;;;;;9.77;7.90;;;;;;;;;;524924;28;1082;-81
2023/08/20 01:33:55;;;;;;;8.77;7.80;;;;;;;;;;524008;28;1469;-80
2023/08/20 01:34:11;;;;;;;8.30;7.50;;;;;;;;;;522953;28;1381;-80
2023/08/20 01:34:26;;;;;;;8.98;7.65;;;;;;;;;;520411;28;1265;-80
2023/08/20 01:34:42;;;;;;;10.73;8.00;;;;;;;;;;518604;28;1324;-81
2023/08/20 01:34:57;;;;;;;9.82;8.00;;;;;;;;;;518191;28;1201;-79
2023/08/20 01:35:13;;;;;;;9.03;7.93;;;;;;;;;;518565;28;1206;-80
2023/08/20 01:35:29;;;;;;;11.85;8.35;;;;;;;;;;520456;28;1416;-79
2023/08/20 01:35:44;;;;;;;12.33;8.77;;;;;;;;;;521324;28;1270;-80
2023/08/20 01:35:59;;;;;;;10.07;8.52;;;;;;;;;;522671;28;1378;-80
2023/08/20 01:36:16;;;;;;;10.90;8.33;;;;;;;;;;523202;28;1240;-80
2023/08/20 01:36:32;;;;;;;11.48;8.35;;;;;;;;;;522229;28;1422;-81
2023/08/20 01:36:47;;;;;;;10.53;8.20;;;;;;;;;;523058;28;1251;-79
2023/08/20 01:37:03;;;;;;;9.38;8.00;;;;;;;;;;522601;28;1544;-81
2023/08/20 01:37:18;;;;;;;9.47;8.07;;;;;;;;;;522644;28;1214;-81
2023/08/20 01:37:33;;;;;;;10.50;8.18;;;;;;;;;;522167;28;1192;-81
2023/08/20 01:37:49;;;;;;;9.30;8.23;;;;;;;;;;522424;28;1251;-81
2023/08/20 01:38:04;;;;;;;9.20;8.30;;;;;;;;;;520336;28;1496;-81
2023/08/20 01:38:20;;;;;;;10.00;8.40;;;;;;;;;;520575;28;1206;-81
2023/08/20 01:38:36;;;;;;;10.93;8.37;;;;;;;;;;520287;28;1286;-81
2023/08/20 01:38:51;;;;;;;10.75;8.40;;;;;;;;;;522983;28;1189;-81
2023/08/20 01:39:07;;;;;;;10.67;8.43;;;;;;;;;;524707;28;1097;-81
2023/08/20 01:39:23;;;;;;;9.23;8.25;;;;;;;;;;524489;28;1070;-81
2023/08/20 01:39:38;;;;;;;9.10;8.20;;;;;;;;;;525653;28;1125;-81
2023/08/20 01:39:54;;;;;;;9.00;8.13;;;;;;;;;;527269;27;1152;-81
2023/08/20 01:40:10;;;;;;;9.90;8.30;;;;;;;;;;526719;28;1380;-81
2023/08/20 01:40:25;;;;;;;11.48;8.73;;;;;;;;;;525309;28;1309;-81
2023/08/20 01:40:41;;;;;;;11.02;8.75;;;;;;;;;;524676;28;1373;-80
2023/08/20 01:40:56;;;;;;;10.70;8.50;;;;;;;;;;524907;28;1275;-80
2023/08/20 01:41:11;;;;;;;10.70;8.50;;;;;;;;;;524975;28;1125;-81
2023/08/20 01:41:27;;;;;;;11.85;8.73;;;;;;;;;;522747;28;1318;-80
2023/08/20 01:41:42;;;;;;;11.77;8.70;;;;;;;;;;522150;28;1323;-81
2023/08/20 01:41:57;;;;;;;9.20;8.27;;;;;;;;;;520019;28;1688;-81
2023/08/20 01:42:12;;;;;;;9.35;8.35;;;;;;;;;;520699;28;1652;-80
2023/08/20 01:42:28;;;;;;;10.40;8.37;;;;;;;;;;523122;28;1181;-81
2023/08/20 01:42:43;;;;;;;11.40;8.67;;;;;;;;;;522627;28;1223;-82
2023/08/20 01:42:59;;;;;;;11.57;8.80;;;;;;;;;;520256;28;1367;-80
2023/08/20 01:43:15;;;;;;;10.40;8.57;;;;;;;;;;519172;28;1172;-81
2023/08/20 01:43:30;;;;;;;9.68;8.57;;;;;;;;;;522571;28;1165;-80
2023/08/20 01:43:45;;;;;;;9.55;8.55;;;;;;;;;;520854;28;1256;-81
2023/08/20 01:44:01;;;;;;;9.53;8.40;;;;;;;;;;523091;28;1177;-81
2023/08/20 01:44:16;;;;;;;10.50;8.30;;;;;;;;;;522334;28;1387;-82
2023/08/20 01:44:31;;;;;;;9.60;8.57;;;;;;;;;;522718;28;1205;-82
2023/08/20 01:44:47;;;;;;;9.32;8.43;;;;;;;;;;522422;28;1283;-81
2023/08/20 01:45:02;;;;;;;8.90;8.00;;;;;;;;;;523079;28;1181;-81
2023/08/20 01:45:18;;;;;;;9.05;8.15;;;;;;;;;;524666;28;1147;-81
2023/08/20 01:45:33;;;;;;;10.80;8.77;;;;;;;;;;523112;28;1290;-81